Flight Track Log - Related Links

Times and Time Zones

All times are in EDT time to prevent confusion due to time zone crossing. See the UCA3597 flight status page for this flight to view local times or setup timezone preferences in your user account.

Time Position Orientation Groundspeed Altitude Reporting Facility
EDT Latitude Longitude Course Direction KTS MPH feet Rate Location/Type
Thu 07:21:13 PM 42.2192 -76.0294 211° Southwest 255 293 3,300  Level New York Center
Thu 07:22:13 PM 42.1736 -76.0678 212° Southwest 184 212 4,400 1,289 Climbing New York Center
Thu 07:23:14 PM 42.1261 -76.1086 213° Southwest 204 235 5,900 1,438 Climbing New York Center
Thu 07:24:14 PM 42.0828 -76.1469 213° Southwest 204 235 7,300 1,059 Climbing New York Center
Thu 07:25:13 PM 42.0286 -76.1900 211° Southwest 209 241 8,000 454 Climbing New York Center
Thu 07:26:00 PM 41.8276 -76.1606 211° Southwest  Level Estimated
Thu 07:26:13 PM 41.9678 -76.2464 215° Southwest 241 277 8,200  Level New York Center
Thu 07:27:14 PM 41.9094 -76.2944 212° Southwest 248 285 9,700 1,339 Climbing New York Center
Thu 07:28:14 PM 41.8553 -76.3375 211° Southwest 243 280 10,900 1,210 Climbing New York Center
Thu 07:29:13 PM 41.8097 -76.3808 215° Southwest 237 273 12,100 1,150 Climbing New York Center
Thu 07:30:14 PM 41.7511 -76.4289 211° Southwest 237 273 13,200 942 Climbing New York Center
Thu 07:31:14 PM 41.6883 -76.4792 211° Southwest 243 280 14,000 407 Climbing New York Center
Thu 07:32:12 PM 41.6253 -76.5347 213° Southwest 257 296 14,000  Level New York Center
Thu 07:33:13 PM 41.5644 -76.5850 212° Southwest 272 313 14,000  Level New York Center
Thu 07:34:14 PM 41.4994 -76.6375 211° Southwest 277 319 14,000  Level New York Center
Thu 07:35:14 PM 41.4339 -76.6956 214° Southwest 282 325 14,000  Level New York Center
Thu 07:36:14 PM 41.3686 -76.7506 212° Southwest 287 330 14,000  Level New York Center
Thu 07:37:12 PM 41.2958 -76.7911 203° Southwest 287 330 14,000  Level New York Center
Thu 07:38:13 PM 41.2181 -76.8033 187° South 279 321 14,000  Level New York Center
Thu 07:39:14 PM 41.1403 -76.8186 188° South 284 327 14,000  Level New York Center
Thu 07:40:12 PM 41.0644 -76.8339 189° South 284 327 14,000  Level New York Center
Thu 07:41:12 PM 40.9781 -76.8508 188° South 284 327 14,000  Level New York Center
Thu 07:42:13 PM 40.9006 -76.8631 187° South 284 327 14,000  Level New York Center
Thu 07:43:13 PM 40.8225 -76.8781 188° South 284 327 14,000  Level New York Center
Thu 07:44:11 PM 40.7464 -76.8989 192° South 284 327 14,000  Level New York Center
Thu 07:45:12 PM 40.6703 -76.9219 193° South 284 327 14,000  Level New York Center
Thu 07:46:13 PM 40.5939 -76.9453 193° South 284 327 14,000  Level New York Center
Thu 07:47:13 PM 40.5197 -76.9714 195° South 284 327 14,000  Level New York Center
Thu 07:48:14 PM 40.4392 -76.9942 192° South 284 327 14,000  Level New York Center
Thu 07:49:12 PM 40.3694 -77.0153 193° South 284 327 14,000  Level New York Center
Thu 07:50:13 PM 40.2867 -77.0403 193° South 284 327 14,000 -300 Level New York Center
Thu 07:51:12 PM 40.2167 -77.0639 194° South 284 327 13,400 -700 Descending New York Center
Thu 07:52:13 PM 40.1300 -77.0886 192° South 284 327 12,600 -738 Descending New York Center
Thu 07:53:14 PM 40.0578 -77.1119 194° South 293 337 11,900 -706 Descending New York Center
Thu 07:55:20 PM 39.8667 -77.1667 192° South 306 352 10,400 -742 Descending Potomac TRACON
Thu 07:56:20 PM 39.8000 -77.2000 201° Southwest 295 339 9,600 -789 Descending Potomac TRACON
Thu 07:57:14 PM 39.7333 -77.2500 210° Southwest 291 335 8,900 -789 Descending Potomac TRACON
Thu 07:58:14 PM 39.6667 -77.3000 210° Southwest 280 322 8,100 -500 Descending Potomac TRACON
Thu 07:59:14 PM 39.6000 -77.3500 210° Southwest 272 313 7,900 -316 Descending Potomac TRACON
Thu 08:00:08 PM 39.5333 -77.3500 180° South 281 323 7,500 -474 Descending Potomac TRACON
Thu 08:01:08 PM 39.4500 -77.3667 189° South 282 325 7,000 -450 Descending Potomac TRACON
Thu 08:02:08 PM 39.3667 -77.3667 180° South 277 319 6,600 -857 Descending Potomac TRACON
Thu 08:03:14 PM 39.3000 -77.3667 180° South 276 318 5,200 -1,000 Descending Potomac TRACON
Thu 08:04:08 PM 39.2167 -77.3667 180° South 263 303 4,600 -600 Descending Potomac TRACON
Thu 08:05:14 PM 39.1333 -77.3500 171° South 260 299 4,000 -286 Descending Potomac TRACON
Thu 08:06:14 PM 39.0833 -77.3500 180° South 257 296 4,000 -200 Level Potomac TRACON
Thu 08:07:14 PM 39.0000 -77.3500 180° South 262 302 3,600 -500 Descending Potomac TRACON
Thu 08:08:14 PM 38.9333 -77.3500 180° South 259 298 3,000 -300 Descending Potomac TRACON
Thu 08:09:14 PM 38.8667 -77.3667 191° South 248 285 3,000 -450 Level Potomac TRACON
Thu 08:10:14 PM 38.8167 -77.4000 207° Southwest 228 262 2,100 -650 Descending Potomac TRACON
Thu 08:11:14 PM 38.8667 -77.4333 333° Northwest 174 200 1,700 -667 Descending Potomac TRACON
Thu 08:12:20 PM 38.9000 -77.4333 360° North 135 155 700 -909 Descending Potomac TRACON
Thu 08:14:00 PM 38.9333 -77.4500 349° North  Level FlightAware Approximate
Thu 08:21:00 PM 38.9474 -77.4599 349° North  Level Estimated
Thu 08:22:00 PM 38.9474 -77.4599 349° North  Level Estimated

Login

Don't have an account? Register now (free) for customized features, flight alerts, and more!